createdAt,value
2019-03-03T00:00:42.011Z,22.70
2019-03-03T00:03:12.489Z,22.97
2019-03-03T00:05:42.836Z,22.70
2019-03-03T00:08:13.151Z,20.63
2019-03-03T00:10:43.538Z,21.03
2019-03-03T00:13:13.896Z,21.77
2019-03-03T00:15:44.263Z,22.87
2019-03-03T00:18:14.639Z,20.13
2019-03-03T00:20:45.834Z,21.33
2019-03-03T00:23:16.212Z,21.40
2019-03-03T00:25:46.587Z,21.70
2019-03-03T00:28:16.963Z,21.30
2019-03-03T00:30:47.321Z,20.80
2019-03-03T00:33:17.691Z,21.57
2019-03-03T00:35:48.069Z,21.57
2019-03-03T00:38:25.843Z,22.70
2019-03-03T00:40:57.975Z,22.43
2019-03-03T00:43:30.157Z,22.83
2019-03-03T00:46:02.163Z,21.63
2019-03-03T00:48:46.393Z,23.33
2019-03-03T00:51:24.395Z,22.07
2019-03-03T00:54:11.488Z,22.10
2019-03-03T00:56:52.530Z,23.07
2019-03-03T00:59:24.519Z,23.67
2019-03-03T01:01:59.510Z,22.40
2019-03-03T01:04:34.439Z,22.80
2019-03-03T01:07:15.618Z,23.17
2019-03-03T01:09:59.609Z,23.37
2019-03-03T01:12:37.543Z,22.73
2019-03-03T01:15:17.205Z,23.73
2019-03-03T01:17:49.222Z,24.33
2019-03-03T01:20:37.717Z,23.63
2019-03-03T01:23:25.095Z,23.97
2019-03-03T01:25:55.958Z,24.73
2019-03-03T01:28:26.312Z,23.67
2019-03-03T01:30:56.588Z,24.17
2019-03-03T01:33:27.029Z,25.53
2019-03-03T01:35:57.455Z,26.93
2019-03-03T01:38:27.736Z,26.00
2019-03-03T01:40:58.093Z,25.30
2019-03-03T01:43:28.387Z,23.13
2019-03-03T01:46:01.080Z,22.47
2019-03-03T01:48:31.458Z,22.30
2019-03-03T01:51:01.833Z,22.97
2019-03-03T01:53:32.213Z,22.50
2019-03-03T01:56:02.505Z,23.13
2019-03-03T01:58:32.782Z,22.60
2019-03-03T02:01:03.368Z,22.67
2019-03-03T02:03:35.324Z,22.90
2019-03-03T02:06:07.295Z,22.33
2019-03-03T02:08:37.609Z,21.73
2019-03-03T02:11:08.012Z,21.87
2019-03-03T02:13:38.342Z,22.00
2019-03-03T02:16:09.693Z,20.67
2019-03-03T02:18:39.985Z,20.80
2019-03-03T02:21:10.283Z,22.27
2019-03-03T02:23:40.577Z,20.97
2019-03-03T02:26:10.904Z,21.53
2019-03-03T02:28:41.186Z,20.33
2019-03-03T02:31:11.482Z,21.23
2019-03-03T02:33:42.958Z,20.53
2019-03-03T02:36:14.565Z,21.97
2019-03-03T02:38:45.154Z,20.83
2019-03-03T02:41:15.464Z,21.57
2019-03-03T02:43:45.761Z,21.17
2019-03-03T02:46:16.034Z,20.77
2019-03-03T02:48:46.311Z,21.87
2019-03-03T02:51:16.683Z,21.50
2019-03-03T02:53:47.061Z,21.77
2019-03-03T02:56:17.396Z,20.93
2019-03-03T02:58:47.800Z,21.50
2019-03-03T03:01:25.461Z,21.40
2019-03-03T03:03:55.769Z,22.23
2019-03-03T03:06:45.788Z,21.43
2019-03-03T03:09:20.828Z,21.00
2019-03-03T03:11:52.836Z,21.50
2019-03-03T03:14:24.876Z,21.90
2019-03-03T03:17:02.681Z,21.13
2019-03-03T03:19:37.621Z,20.90
2019-03-03T03:22:15.594Z,20.90
2019-03-03T03:24:53.379Z,20.80
2019-03-03T03:27:31.137Z,21.23
2019-03-03T03:30:05.790Z,21.43
2019-03-03T03:32:37.761Z,20.13
2019-03-03T03:35:19.730Z,21.93
2019-03-03T03:37:51.733Z,20.93
2019-03-03T03:40:23.648Z,21.27
2019-03-03T03:42:55.594Z,20.87
2019-03-03T03:45:36.461Z,20.00
2019-03-03T03:48:24.921Z,22.67
2019-03-03T03:51:03.076Z,18.67
2019-03-03T03:53:50.036Z,20.57
2019-03-03T03:56:21.958Z,21.00
2019-03-03T03:59:09.006Z,21.47
2019-03-03T04:01:40.967Z,18.83
2019-03-03T04:04:15.654Z,20.47
2019-03-03T04:06:47.693Z,21.07
2019-03-03T04:09:37.594Z,20.50
2019-03-03T04:12:16.594Z,19.90
2019-03-03T04:14:48.553Z,21.10
2019-03-03T04:17:30.100Z,20.43
2019-03-03T04:20:02.046Z,19.83
2019-03-03T04:22:50.929Z,20.50
2019-03-03T04:25:24.183Z,20.00
2019-03-03T04:28:02.417Z,19.90
2019-03-03T04:30:40.247Z,19.63
2019-03-03T04:33:24.349Z,20.00
2019-03-03T04:35:56.275Z,19.00
2019-03-03T04:38:44.394Z,19.80
2019-03-03T04:41:33.459Z,20.20
2019-03-03T04:44:17.732Z,20.33
2019-03-03T04:46:49.749Z,19.00
2019-03-03T04:49:30.488Z,19.83
2019-03-03T04:52:08.493Z,19.33
2019-03-03T04:54:56.641Z,19.23
2019-03-03T04:57:40.988Z,19.57
2019-03-03T05:00:32.124Z,19.23
2019-03-03T05:03:04.189Z,19.83
2019-03-03T05:05:39.030Z,19.03
2019-03-03T05:08:10.971Z,20.27
2019-03-03T05:10:54.762Z,19.70
2019-03-03T05:13:29.732Z,19.80
2019-03-03T05:16:17.826Z,20.27
2019-03-03T05:18:49.757Z,18.93
2019-03-03T05:21:20.032Z,20.30
2019-03-03T05:23:50.612Z,18.43
2019-03-03T05:26:20.939Z,19.93
2019-03-03T05:28:51.589Z,20.13
2019-03-03T05:31:22.019Z,21.03
2019-03-03T05:33:52.419Z,21.03
2019-03-03T05:36:22.772Z,20.23
2019-03-03T05:38:53.097Z,20.87
2019-03-03T05:41:23.393Z,19.37
2019-03-03T05:43:53.749Z,18.00
2019-03-03T05:46:25.147Z,19.27
2019-03-03T05:48:55.576Z,20.07
2019-03-03T05:51:26.255Z,19.03
2019-03-03T05:53:58.524Z,19.77
2019-03-03T05:56:29.012Z,19.47
2019-03-03T05:59:00.271Z,19.30
2019-03-03T06:01:30.568Z,20.13
2019-03-03T06:04:01.152Z,18.40
2019-03-03T06:06:32.639Z,21.17
2019-03-03T06:09:03.397Z,19.23
2019-03-03T06:11:35.196Z,21.50
2019-03-03T06:14:05.493Z,21.50
2019-03-03T06:16:35.772Z,24.27
2019-03-03T06:19:06.156Z,23.43
2019-03-03T06:21:36.442Z,22.57
2019-03-03T06:24:06.716Z,23.67
2019-03-03T06:26:37.020Z,22.53
2019-03-03T06:29:07.371Z,22.27
2019-03-03T06:31:37.712Z,35.33
2019-03-03T06:34:08.071Z,24.87
2019-03-03T06:36:38.385Z,27.27
2019-03-03T06:39:08.816Z,23.33
2019-03-03T06:41:39.260Z,21.07
2019-03-03T06:44:09.552Z,21.67
2019-03-03T06:46:39.878Z,20.83
2019-03-03T06:49:10.169Z,20.43
2019-03-03T06:51:40.757Z,21.90
2019-03-03T06:54:11.204Z,20.77
2019-03-03T06:56:41.500Z,20.33
2019-03-03T06:59:11.847Z,24.33
2019-03-03T07:01:42.167Z,21.57
2019-03-03T07:04:12.551Z,22.30
2019-03-03T07:06:42.864Z,19.33
2019-03-03T07:09:14.292Z,19.73
2019-03-03T07:11:44.803Z,20.07
2019-03-03T07:14:15.169Z,18.23
2019-03-03T07:16:45.550Z,19.17
2019-03-03T07:19:15.859Z,18.07
2019-03-03T07:21:46.154Z,18.00
2019-03-03T07:24:16.660Z,19.83
2019-03-03T07:26:47.137Z,19.17
2019-03-03T07:29:17.538Z,19.00
2019-03-03T07:31:47.835Z,20.47
2019-03-03T07:34:18.308Z,18.87
2019-03-03T07:36:48.616Z,19.07
2019-03-03T07:39:19.035Z,17.93
2019-03-03T07:41:49.457Z,18.13
2019-03-03T07:44:19.812Z,19.67
2019-03-03T07:46:50.220Z,18.10
2019-03-03T07:49:21.018Z,18.23
2019-03-03T07:51:51.424Z,18.77
2019-03-03T07:54:21.801Z,17.47
2019-03-03T07:56:52.150Z,19.17
2019-03-03T07:59:23.008Z,18.47
2019-03-03T08:01:53.817Z,17.43
2019-03-03T08:04:25.003Z,18.70
2019-03-03T08:06:56.048Z,21.20
2019-03-03T08:09:26.461Z,19.47
2019-03-03T08:11:56.810Z,19.70
2019-03-03T08:14:27.484Z,19.83
2019-03-03T08:16:57.956Z,19.03
2019-03-03T08:19:29.263Z,17.43
2019-03-03T08:21:59.617Z,18.93
2019-03-03T08:24:30.010Z,18.27
2019-03-03T08:27:00.443Z,17.87
2019-03-03T08:29:32.263Z,18.33
2019-03-03T08:32:02.541Z,16.77
2019-03-03T08:34:32.822Z,16.23
2019-03-03T08:37:03.206Z,15.83
2019-03-03T08:39:33.599Z,15.50
2019-03-03T08:42:22.215Z,16.07
2019-03-03T08:44:54.418Z,14.27
2019-03-03T08:47:33.269Z,14.17
2019-03-03T08:50:08.302Z,13.43
2019-03-03T08:52:43.394Z,12.90
2019-03-03T08:55:16.476Z,13.27
2019-03-03T08:57:48.444Z,12.40
2019-03-03T09:00:26.399Z,12.97
2019-03-03T09:03:08.886Z,12.90
2019-03-03T09:05:41.049Z,12.93
2019-03-03T09:08:13.157Z,12.23
2019-03-03T09:10:45.312Z,11.93
2019-03-03T09:13:32.477Z,10.57
2019-03-03T09:16:14.314Z,11.93
2019-03-03T09:18:48.745Z,12.47
2019-03-03T09:21:36.880Z,10.83
2019-03-03T09:24:21.111Z,10.93
2019-03-03T09:26:53.368Z,9.80
2019-03-03T09:29:28.030Z,11.50
2019-03-03T09:32:05.898Z,11.20
2019-03-03T09:34:37.976Z,11.37
2019-03-03T09:37:10.072Z,9.27
2019-03-03T09:39:47.835Z,10.97
2019-03-03T09:42:22.979Z,10.40
2019-03-03T09:44:55.038Z,10.37
2019-03-03T09:47:40.293Z,10.10
2019-03-03T09:50:21.828Z,10.60
2019-03-03T09:52:54.083Z,9.83
2019-03-03T09:55:28.721Z,9.53
2019-03-03T09:58:07.200Z,8.13
2019-03-03T10:00:55.461Z,8.43
2019-03-03T10:03:27.590Z,8.53
2019-03-03T10:06:11.667Z,8.37
2019-03-03T10:08:46.646Z,8.13
2019-03-03T10:11:21.549Z,7.33
2019-03-03T10:13:53.905Z,8.20
2019-03-03T10:16:36.004Z,7.23
2019-03-03T10:19:07.963Z,6.93
2019-03-03T10:21:41.263Z,6.40
2019-03-03T10:24:25.389Z,10.23
2019-03-03T10:27:13.778Z,6.77
2019-03-03T10:30:02.204Z,6.43
2019-03-03T10:32:36.988Z,6.63
2019-03-03T10:35:22.224Z,5.10
2019-03-03T10:38:07.286Z,5.77
2019-03-03T10:40:54.635Z,5.47
2019-03-03T10:43:26.685Z,4.80
2019-03-03T10:46:07.512Z,4.60
2019-03-03T10:48:43.807Z,4.83
2019-03-03T10:51:32.763Z,4.67
2019-03-03T10:54:07.560Z,4.57
2019-03-03T10:56:39.875Z,4.53
2019-03-03T10:59:15.396Z,4.17
2019-03-03T11:01:47.675Z,4.10
2019-03-03T11:04:20.182Z,4.13
2019-03-03T11:07:09.381Z,4.63
2019-03-03T11:09:41.527Z,4.30
2019-03-03T11:12:30.783Z,3.87
2019-03-03T11:15:05.790Z,3.77
2019-03-03T11:17:46.469Z,3.67
2019-03-03T11:20:24.328Z,4.10
2019-03-03T11:23:11.779Z,3.93
2019-03-03T11:26:00.240Z,3.90
2019-03-03T11:28:36.165Z,4.10
2019-03-03T11:31:25.488Z,3.87
2019-03-03T11:34:13.098Z,3.40
2019-03-03T11:36:47.699Z,3.53
2019-03-03T11:39:19.653Z,3.43
2019-03-03T11:42:05.090Z,3.77
2019-03-03T11:44:53.516Z,3.73
2019-03-03T11:47:42.056Z,3.93
2019-03-03T11:50:14.709Z,3.40
2019-03-03T11:52:47.718Z,3.60
2019-03-03T11:55:20.524Z,3.50
2019-03-03T11:57:53.264Z,2.67
2019-03-03T12:00:36.788Z,3.17
2019-03-03T12:03:18.413Z,3.30
2019-03-03T12:05:53.668Z,2.80
2019-03-03T12:08:32.449Z,3.13
2019-03-03T12:11:21.104Z,3.03
2019-03-03T12:13:59.352Z,3.13
2019-03-03T12:16:31.697Z,3.07
2019-03-03T12:19:17.027Z,3.17
2019-03-03T12:21:53.327Z,4.33
2019-03-03T12:24:40.485Z,4.90
2019-03-03T12:27:18.267Z,3.60
2019-03-03T12:29:50.326Z,3.90
2019-03-03T12:32:34.100Z,5.67
2019-03-03T12:35:08.012Z,3.13
2019-03-03T12:37:46.070Z,3.33
2019-03-03T12:40:26.545Z,4.23
2019-03-03T12:43:01.401Z,4.63
2019-03-03T12:45:39.371Z,3.10
2019-03-03T12:48:11.492Z,3.30
2019-03-03T12:51:01.657Z,3.30
2019-03-03T12:53:47.354Z,2.93
2019-03-03T12:56:31.333Z,3.00
2019-03-03T12:59:15.298Z,3.47
2019-03-03T13:01:56.350Z,2.90
2019-03-03T13:04:43.725Z,2.77
2019-03-03T13:07:21.458Z,3.10
2019-03-03T13:10:00.092Z,2.60
2019-03-03T13:12:34.098Z,3.00
2019-03-03T13:15:09.423Z,2.43
2019-03-03T13:17:48.446Z,2.70
2019-03-03T13:20:38.175Z,2.20
2019-03-03T13:23:10.215Z,2.30
2019-03-03T13:25:58.513Z,3.03
2019-03-03T13:28:39.953Z,2.53
2019-03-03T13:31:21.430Z,3.07
2019-03-03T13:33:56.748Z,3.23
2019-03-03T13:36:28.764Z,3.03
2019-03-03T13:39:07.250Z,3.30
2019-03-03T13:41:43.766Z,5.67
2019-03-03T13:44:14.322Z,4.47
2019-03-03T13:46:45.590Z,3.50
2019-03-03T13:49:16.121Z,3.77
2019-03-03T13:51:46.582Z,3.40
2019-03-03T13:54:16.955Z,3.67
2019-03-03T13:56:49.783Z,3.20
2019-03-03T13:59:20.525Z,3.47
2019-03-03T14:01:51.209Z,3.50
2019-03-03T14:04:21.521Z,3.97
2019-03-03T14:06:52.820Z,3.20
2019-03-03T14:09:23.880Z,3.00
2019-03-03T14:11:55.274Z,3.30
2019-03-03T14:14:25.852Z,3.23
2019-03-03T14:16:56.276Z,3.03
2019-03-03T14:19:26.706Z,2.63
2019-03-03T14:21:57.430Z,2.70
2019-03-03T14:24:27.984Z,2.97
2019-03-03T14:26:59.845Z,2.83
2019-03-03T14:29:31.739Z,2.67
2019-03-03T14:32:02.932Z,3.33
2019-03-03T14:34:33.489Z,2.90
2019-03-03T14:37:03.887Z,3.07
2019-03-03T14:39:37.050Z,3.13
2019-03-03T14:42:07.712Z,3.27
2019-03-03T14:44:38.397Z,3.20
2019-03-03T14:47:08.714Z,3.43
2019-03-03T14:49:39.471Z,3.27
2019-03-03T14:52:09.803Z,3.67
2019-03-03T14:54:40.111Z,3.73
2019-03-03T14:57:11.002Z,3.30
2019-03-03T14:59:41.722Z,3.50
2019-03-03T15:02:12.630Z,3.73
2019-03-03T15:04:43.439Z,3.83
2019-03-03T15:07:14.297Z,3.43
2019-03-03T15:09:45.208Z,3.87
2019-03-03T15:12:16.391Z,3.77
2019-03-03T15:14:47.568Z,5.03
2019-03-03T15:17:19.752Z,4.10
2019-03-03T15:19:52.924Z,4.03
2019-03-03T15:22:25.588Z,6.37
2019-03-03T15:24:57.105Z,5.07
2019-03-03T15:27:27.907Z,4.87
2019-03-03T15:29:58.281Z,4.40
2019-03-03T15:32:28.753Z,4.63
2019-03-03T15:35:00.581Z,5.13
2019-03-03T15:37:30.902Z,4.93
2019-03-03T15:40:01.408Z,6.23
2019-03-03T15:42:32.564Z,5.60
2019-03-03T15:45:07.155Z,5.17
2019-03-03T15:47:38.047Z,5.07
2019-03-03T15:50:10.412Z,4.67
2019-03-03T15:52:40.996Z,5.13
2019-03-03T15:55:13.651Z,5.00
2019-03-03T15:57:44.739Z,5.07
2019-03-03T16:00:21.552Z,5.13
2019-03-03T16:02:51.934Z,4.97
2019-03-03T16:05:23.679Z,5.73
2019-03-03T16:07:55.835Z,7.77
2019-03-03T16:10:26.998Z,7.40
2019-03-03T16:12:57.437Z,5.93
2019-03-03T16:15:28.422Z,6.17
2019-03-03T16:18:03.187Z,6.07
2019-03-03T16:20:35.399Z,6.37
2019-03-03T16:23:06.162Z,5.87
2019-03-03T16:25:36.607Z,6.47
2019-03-03T16:28:07.042Z,6.33
2019-03-03T16:30:37.430Z,6.17
2019-03-03T16:33:07.826Z,6.47
2019-03-03T16:35:41.932Z,8.27
2019-03-03T16:38:12.617Z,6.93
2019-03-03T16:40:46.198Z,7.27
2019-03-03T16:43:20.491Z,6.13
2019-03-03T16:45:51.154Z,6.13
2019-03-03T16:48:22.250Z,6.10
2019-03-03T16:50:52.920Z,6.07
2019-03-03T16:53:24.707Z,5.63
2019-03-03T16:55:55.439Z,7.93
2019-03-03T16:58:26.611Z,5.83
2019-03-03T17:00:57.108Z,5.77
2019-03-03T17:03:27.508Z,5.57
2019-03-03T17:06:00.156Z,6.23
2019-03-03T17:08:31.685Z,6.00
2019-03-03T17:11:02.033Z,5.83
2019-03-03T17:13:32.393Z,6.10
2019-03-03T17:16:04.164Z,5.30
2019-03-03T17:18:39.674Z,5.23
2019-03-03T17:21:13.084Z,5.10
2019-03-03T17:23:44.201Z,5.10
2019-03-03T17:26:15.338Z,5.03
2019-03-03T17:28:49.506Z,5.87
2019-03-03T17:31:21.945Z,5.07
2019-03-03T17:33:54.056Z,4.97
2019-03-03T17:36:26.497Z,4.67
2019-03-03T17:38:59.335Z,4.93
2019-03-03T17:41:29.985Z,5.70
2019-03-03T17:44:01.845Z,6.10
2019-03-03T17:46:32.311Z,7.83
2019-03-03T17:49:03.164Z,6.17
2019-03-03T17:51:34.002Z,7.20
2019-03-03T17:54:04.956Z,7.40
2019-03-03T17:56:35.933Z,8.27
2019-03-03T17:59:06.276Z,8.30
2019-03-03T18:01:37.933Z,7.90
2019-03-03T18:04:09.604Z,9.97
2019-03-03T18:06:41.687Z,12.07
2019-03-03T18:09:12.261Z,9.00
2019-03-03T18:11:43.378Z,7.13
2019-03-03T18:14:14.078Z,6.57
2019-03-03T18:16:46.588Z,9.23
2019-03-03T18:19:17.013Z,6.93
2019-03-03T18:21:47.869Z,5.87
2019-03-03T18:24:18.908Z,6.30
2019-03-03T18:26:49.266Z,8.47
2019-03-03T18:29:20.079Z,7.73
2019-03-03T18:31:50.455Z,5.83
2019-03-03T18:34:21.150Z,7.23
2019-03-03T18:36:51.602Z,8.80
2019-03-03T18:39:22.156Z,8.90
2019-03-03T18:41:53.880Z,6.70
2019-03-03T18:44:25.006Z,7.37
2019-03-03T18:46:55.678Z,6.90
2019-03-03T18:49:26.145Z,6.63
2019-03-03T18:51:57.057Z,7.53
2019-03-03T18:54:28.085Z,6.80
2019-03-03T18:57:00.892Z,6.77
2019-03-03T18:59:32.943Z,7.80
2019-03-03T19:02:03.675Z,8.03
2019-03-03T19:04:34.089Z,13.07
2019-03-03T19:07:05.675Z,12.47
2019-03-03T19:09:36.235Z,8.37
2019-03-03T19:12:06.628Z,13.93
2019-03-03T19:14:37.281Z,10.93
2019-03-03T19:17:07.738Z,11.80
2019-03-03T19:19:38.176Z,12.30
2019-03-03T19:22:08.914Z,11.20
2019-03-03T19:24:39.573Z,9.80
2019-03-03T19:27:10.258Z,9.63
2019-03-03T19:29:42.450Z,9.77
2019-03-03T19:32:13.701Z,9.27
2019-03-03T19:34:45.137Z,9.83
2019-03-03T19:37:17.071Z,10.57
2019-03-03T19:39:50.039Z,8.47
2019-03-03T19:42:20.726Z,8.30
2019-03-03T19:44:51.340Z,10.17
2019-03-03T19:47:22.270Z,9.90
2019-03-03T19:49:53.024Z,7.40
2019-03-03T19:52:23.401Z,6.80
2019-03-03T19:54:53.830Z,6.83
2019-03-03T19:57:24.268Z,7.10
2019-03-03T19:59:55.566Z,8.03
2019-03-03T20:02:26.518Z,6.30
2019-03-03T20:04:58.423Z,5.07
2019-03-03T20:07:29.062Z,5.13
2019-03-03T20:09:59.959Z,6.00
2019-03-03T20:12:30.464Z,5.03
2019-03-03T20:15:03.758Z,4.03
2019-03-03T20:17:35.683Z,4.77
2019-03-03T20:20:11.348Z,4.97
2019-03-03T20:22:42.007Z,4.97
2019-03-03T20:25:12.322Z,4.67
2019-03-03T20:27:43.828Z,4.53
2019-03-03T20:30:17.032Z,4.80
2019-03-03T20:32:47.530Z,4.70
2019-03-03T20:35:18.884Z,4.13
2019-03-03T20:37:49.301Z,4.73
2019-03-03T20:40:25.603Z,4.33
2019-03-03T20:42:56.508Z,4.87
2019-03-03T20:45:31.883Z,5.00
2019-03-03T20:48:03.436Z,4.57
2019-03-03T20:50:33.806Z,4.60
2019-03-03T20:53:04.166Z,3.97
2019-03-03T20:55:35.088Z,4.37
2019-03-03T20:58:05.440Z,4.20
2019-03-03T21:00:39.695Z,4.20
2019-03-03T21:03:10.200Z,3.90
2019-03-03T21:05:42.052Z,4.57
2019-03-03T21:08:12.848Z,4.10
2019-03-03T21:10:43.375Z,4.50
2019-03-03T21:13:16.091Z,4.30
2019-03-03T21:15:46.446Z,4.10
2019-03-03T21:18:18.449Z,5.00
2019-03-03T21:20:50.850Z,4.03
2019-03-03T21:23:21.610Z,3.90
2019-03-03T21:25:51.915Z,3.87
2019-03-03T21:28:22.313Z,3.90
2019-03-03T21:30:53.615Z,3.57
2019-03-03T21:33:24.051Z,3.53
2019-03-03T21:35:54.406Z,3.77
2019-03-03T21:38:24.767Z,3.87
2019-03-03T21:40:55.228Z,3.87
2019-03-03T21:43:25.912Z,4.20
2019-03-03T21:45:56.355Z,3.80
2019-03-03T21:48:26.629Z,3.80
2019-03-03T21:50:57.244Z,3.80
2019-03-03T21:53:27.596Z,3.40
2019-03-03T21:55:57.950Z,3.73
2019-03-03T21:58:28.231Z,3.70
2019-03-03T22:00:58.500Z,4.10
2019-03-03T22:03:28.900Z,3.97
2019-03-03T22:05:59.273Z,4.33
2019-03-03T22:08:29.621Z,4.00
2019-03-03T22:10:59.958Z,3.60
2019-03-03T22:13:30.570Z,3.73
2019-03-03T22:16:00.878Z,3.70
2019-03-03T22:18:32.560Z,4.00
2019-03-03T22:21:02.968Z,4.50
2019-03-03T22:23:33.254Z,4.23
2019-03-03T22:26:03.588Z,4.20
2019-03-03T22:28:33.882Z,4.13
2019-03-03T22:31:04.143Z,3.97
2019-03-03T22:33:34.439Z,4.30
2019-03-03T22:36:04.719Z,3.83
2019-03-03T22:38:35.371Z,3.70
2019-03-03T22:41:05.653Z,4.17
2019-03-03T22:43:35.950Z,4.10
2019-03-03T22:46:07.571Z,3.67
2019-03-03T22:48:37.933Z,3.90
2019-03-03T22:51:08.231Z,4.10
2019-03-03T22:53:38.495Z,3.87
2019-03-03T22:56:08.791Z,3.83
2019-03-03T22:58:39.126Z,3.50
2019-03-03T23:01:12.822Z,3.60
2019-03-03T23:04:08.158Z,4.50
2019-03-03T23:06:47.979Z,3.53
2019-03-03T23:09:47.333Z,3.50
2019-03-03T23:12:43.760Z,3.90
2019-03-03T23:15:34.106Z,4.07
2019-03-03T23:18:27.507Z,4.57
2019-03-03T23:21:12.727Z,3.97
2019-03-03T23:24:13.404Z,4.43
2019-03-03T23:26:43.762Z,3.67
2019-03-03T23:29:14.132Z,3.87
2019-03-03T23:31:44.474Z,3.80
2019-03-03T23:34:14.836Z,3.23
2019-03-03T23:36:46.620Z,3.47
2019-03-03T23:39:18.258Z,3.53
2019-03-03T23:41:48.583Z,3.30
2019-03-03T23:44:18.955Z,3.27
2019-03-03T23:46:49.310Z,3.23
2019-03-03T23:49:19.683Z,3.33
2019-03-03T23:51:50.017Z,3.83
2019-03-03T23:54:20.374Z,2.90
2019-03-03T23:56:52.359Z,3.23
2019-03-03T23:59:22.702Z,3.20
